sensor_id;sensor_type;location;lat;lon;timestamp;P1;durP1;ratioP1;P2;durP2;ratioP2
79074;SDS011;68476;42.710;23.388;2023-07-08T00:01:21;13.85;;;11.93;;
79074;SDS011;68476;42.710;23.388;2023-07-08T00:03:47;14.95;;;12.02;;
79074;SDS011;68476;42.710;23.388;2023-07-08T00:06:15;15.23;;;12.18;;
79074;SDS011;68476;42.710;23.388;2023-07-08T00:08:45;16.38;;;12.52;;
79074;SDS011;68476;42.710;23.388;2023-07-08T00:11:12;14.93;;;12.20;;
79074;SDS011;68476;42.710;23.388;2023-07-08T00:13:38;16.27;;;12.85;;
79074;SDS011;68476;42.710;23.388;2023-07-08T00:16:04;16.30;;;12.15;;
79074;SDS011;68476;42.710;23.388;2023-07-08T00:20:58;17.60;;;13.40;;
79074;SDS011;68476;42.710;23.388;2023-07-08T00:23:24;15.45;;;13.40;;
79074;SDS011;68476;42.710;23.388;2023-07-08T00:25:50;17.30;;;14.32;;
79074;SDS011;68476;42.710;23.388;2023-07-08T00:28:19;16.98;;;14.00;;
79074;SDS011;68476;42.710;23.388;2023-07-08T00:30:49;15.52;;;13.65;;
79074;SDS011;68476;42.710;23.388;2023-07-08T00:33:14;16.02;;;13.73;;
79074;SDS011;68476;42.710;23.388;2023-07-08T00:35:40;17.08;;;14.85;;
79074;SDS011;68476;42.710;23.388;2023-07-08T00:38:21;15.73;;;13.93;;
79074;SDS011;68476;42.710;23.388;2023-07-08T00:40:58;17.05;;;14.98;;
79074;SDS011;68476;42.710;23.388;2023-07-08T00:43:51;12.35;;;10.52;;
79074;SDS011;68476;42.710;23.388;2023-07-08T00:48:56;15.88;;;13.55;;
79074;SDS011;68476;42.710;23.388;2023-07-08T00:51:23;18.55;;;14.63;;
79074;SDS011;68476;42.710;23.388;2023-07-08T00:53:49;16.55;;;14.10;;
79074;SDS011;68476;42.710;23.388;2023-07-08T00:56:19;16.83;;;14.02;;
79074;SDS011;68476;42.710;23.388;2023-07-08T00:58:56;15.40;;;12.77;;
79074;SDS011;68476;42.710;23.388;2023-07-08T01:01:26;15.85;;;12.75;;
79074;SDS011;68476;42.710;23.388;2023-07-08T01:06:40;16.35;;;12.95;;
79074;SDS011;68476;42.710;23.388;2023-07-08T01:09:10;14.80;;;12.68;;
79074;SDS011;68476;42.710;23.388;2023-07-08T01:11:39;17.77;;;14.27;;
79074;SDS011;68476;42.710;23.388;2023-07-08T01:14:06;14.82;;;13.23;;
79074;SDS011;68476;42.710;23.388;2023-07-08T01:16:34;15.85;;;13.75;;
79074;SDS011;68476;42.710;23.388;2023-07-08T01:19:01;15.80;;;13.35;;
79074;SDS011;68476;42.710;23.388;2023-07-08T01:24:04;15.43;;;12.48;;
79074;SDS011;68476;42.710;23.388;2023-07-08T01:26:33;15.48;;;13.63;;
79074;SDS011;68476;42.710;23.388;2023-07-08T01:29:00;14.98;;;12.20;;
79074;SDS011;68476;42.710;23.388;2023-07-08T01:31:27;14.25;;;11.40;;
79074;SDS011;68476;42.710;23.388;2023-07-08T01:33:53;12.60;;;10.38;;
79074;SDS011;68476;42.710;23.388;2023-07-08T01:36:19;13.77;;;11.88;;
79074;SDS011;68476;42.710;23.388;2023-07-08T01:38:45;14.30;;;11.57;;
79074;SDS011;68476;42.710;23.388;2023-07-08T01:41:11;11.93;;;10.50;;
79074;SDS011;68476;42.710;23.388;2023-07-08T01:43:39;15.43;;;10.32;;
79074;SDS011;68476;42.710;23.388;2023-07-08T01:46:04;13.70;;;10.30;;
79074;SDS011;68476;42.710;23.388;2023-07-08T01:48:40;12.57;;;10.32;;
79074;SDS011;68476;42.710;23.388;2023-07-08T01:51:09;14.55;;;11.50;;
79074;SDS011;68476;42.710;23.388;2023-07-08T01:53:36;13.40;;;10.68;;
79074;SDS011;68476;42.710;23.388;2023-07-08T01:56:03;14.10;;;11.43;;
79074;SDS011;68476;42.710;23.388;2023-07-08T01:58:29;13.48;;;10.00;;
79074;SDS011;68476;42.710;23.388;2023-07-08T02:00:55;12.50;;;10.82;;
79074;SDS011;68476;42.710;23.388;2023-07-08T02:03:21;13.52;;;10.23;;
79074;SDS011;68476;42.710;23.388;2023-07-08T02:05:47;11.65;;;10.50;;
79074;SDS011;68476;42.710;23.388;2023-07-08T02:08:13;13.07;;;10.70;;
79074;SDS011;68476;42.710;23.388;2023-07-08T02:10:38;13.80;;;10.18;;
79074;SDS011;68476;42.710;23.388;2023-07-08T02:13:05;12.60;;;9.73;;
79074;SDS011;68476;42.710;23.388;2023-07-08T02:15:31;13.13;;;10.88;;
79074;SDS011;68476;42.710;23.388;2023-07-08T02:17:57;13.45;;;10.13;;
79074;SDS011;68476;42.710;23.388;2023-07-08T02:20:22;12.40;;;10.55;;
79074;SDS011;68476;42.710;23.388;2023-07-08T02:22:48;11.63;;;9.77;;
79074;SDS011;68476;42.710;23.388;2023-07-08T02:25:14;12.88;;;10.60;;
79074;SDS011;68476;42.710;23.388;2023-07-08T02:27:40;13.20;;;10.45;;
79074;SDS011;68476;42.710;23.388;2023-07-08T02:30:06;12.63;;;10.43;;
79074;SDS011;68476;42.710;23.388;2023-07-08T02:32:32;11.32;;;9.60;;
79074;SDS011;68476;42.710;23.388;2023-07-08T02:35:03;11.77;;;10.45;;
79074;SDS011;68476;42.710;23.388;2023-07-08T02:37:32;12.75;;;10.77;;
79074;SDS011;68476;42.710;23.388;2023-07-08T02:39:58;13.95;;;11.07;;
79074;SDS011;68476;42.710;23.388;2023-07-08T02:42:24;12.50;;;10.15;;
79074;SDS011;68476;42.710;23.388;2023-07-08T02:44:49;14.70;;;10.88;;
79074;SDS011;68476;42.710;23.388;2023-07-08T02:47:14;14.45;;;11.40;;
79074;SDS011;68476;42.710;23.388;2023-07-08T02:49:40;13.38;;;11.07;;
79074;SDS011;68476;42.710;23.388;2023-07-08T02:52:05;13.82;;;11.35;;
79074;SDS011;68476;42.710;23.388;2023-07-08T02:54:31;13.43;;;10.57;;
79074;SDS011;68476;42.710;23.388;2023-07-08T02:56:56;13.85;;;11.02;;
79074;SDS011;68476;42.710;23.388;2023-07-08T02:59:22;13.38;;;10.30;;
79074;SDS011;68476;42.710;23.388;2023-07-08T03:01:47;11.98;;;9.52;;
79074;SDS011;68476;42.710;23.388;2023-07-08T03:04:13;13.10;;;9.63;;
79074;SDS011;68476;42.710;23.388;2023-07-08T03:06:42;12.00;;;9.93;;
79074;SDS011;68476;42.710;23.388;2023-07-08T03:09:08;11.95;;;10.50;;
79074;SDS011;68476;42.710;23.388;2023-07-08T03:11:35;12.02;;;9.60;;
79074;SDS011;68476;42.710;23.388;2023-07-08T03:14:01;12.68;;;9.95;;
79074;SDS011;68476;42.710;23.388;2023-07-08T03:16:27;14.65;;;10.15;;
79074;SDS011;68476;42.710;23.388;2023-07-08T03:18:52;11.77;;;9.23;;
79074;SDS011;68476;42.710;23.388;2023-07-08T03:21:18;13.23;;;10.07;;
79074;SDS011;68476;42.710;23.388;2023-07-08T03:23:43;11.23;;;9.95;;
79074;SDS011;68476;42.710;23.388;2023-07-08T03:26:13;14.52;;;11.13;;
79074;SDS011;68476;42.710;23.388;2023-07-08T03:28:40;12.27;;;10.25;;
79074;SDS011;68476;42.710;23.388;2023-07-08T03:31:07;13.57;;;10.00;;
79074;SDS011;68476;42.710;23.388;2023-07-08T03:33:33;11.85;;;9.65;;
79074;SDS011;68476;42.710;23.388;2023-07-08T03:35:59;13.20;;;10.10;;
79074;SDS011;68476;42.710;23.388;2023-07-08T03:38:24;13.48;;;10.25;;
79074;SDS011;68476;42.710;23.388;2023-07-08T03:40:50;14.93;;;10.68;;
79074;SDS011;68476;42.710;23.388;2023-07-08T03:43:15;12.70;;;9.90;;
79074;SDS011;68476;42.710;23.388;2023-07-08T03:45:40;12.55;;;10.15;;
79074;SDS011;68476;42.710;23.388;2023-07-08T03:48:07;13.02;;;10.50;;
79074;SDS011;68476;42.710;23.388;2023-07-08T03:50:35;11.48;;;9.77;;
79074;SDS011;68476;42.710;23.388;2023-07-08T03:53:00;12.55;;;10.52;;
79074;SDS011;68476;42.710;23.388;2023-07-08T03:55:26;11.57;;;9.55;;
79074;SDS011;68476;42.710;23.388;2023-07-08T03:57:52;10.85;;;9.10;;
79074;SDS011;68476;42.710;23.388;2023-07-08T04:00:17;11.82;;;10.02;;
79074;SDS011;68476;42.710;23.388;2023-07-08T04:02:43;12.27;;;10.35;;
79074;SDS011;68476;42.710;23.388;2023-07-08T04:05:13;13.10;;;10.32;;
79074;SDS011;68476;42.710;23.388;2023-07-08T04:07:48;13.13;;;9.68;;
79074;SDS011;68476;42.710;23.388;2023-07-08T04:10:14;12.60;;;10.95;;
79074;SDS011;68476;42.710;23.388;2023-07-08T04:12:41;13.48;;;10.82;;
79074;SDS011;68476;42.710;23.388;2023-07-08T04:15:07;12.70;;;10.52;;
79074;SDS011;68476;42.710;23.388;2023-07-08T04:17:35;13.65;;;10.45;;
79074;SDS011;68476;42.710;23.388;2023-07-08T04:20:14;11.88;;;9.80;;
79074;SDS011;68476;42.710;23.388;2023-07-08T04:22:40;10.90;;;9.77;;
79074;SDS011;68476;42.710;23.388;2023-07-08T04:25:06;13.55;;;10.02;;
79074;SDS011;68476;42.710;23.388;2023-07-08T04:27:32;11.50;;;10.30;;
79074;SDS011;68476;42.710;23.388;2023-07-08T04:29:58;12.48;;;10.00;;
79074;SDS011;68476;42.710;23.388;2023-07-08T04:32:23;12.38;;;10.45;;
79074;SDS011;68476;42.710;23.388;2023-07-08T04:34:50;13.38;;;10.02;;
79074;SDS011;68476;42.710;23.388;2023-07-08T04:37:16;10.93;;;9.45;;
79074;SDS011;68476;42.710;23.388;2023-07-08T04:39:41;12.45;;;10.02;;
79074;SDS011;68476;42.710;23.388;2023-07-08T04:42:06;11.35;;;9.80;;
79074;SDS011;68476;42.710;23.388;2023-07-08T04:44:32;11.25;;;9.50;;
79074;SDS011;68476;42.710;23.388;2023-07-08T04:46:58;11.80;;;9.70;;
79074;SDS011;68476;42.710;23.388;2023-07-08T04:49:24;10.73;;;9.20;;
79074;SDS011;68476;42.710;23.388;2023-07-08T04:51:50;11.70;;;9.50;;
79074;SDS011;68476;42.710;23.388;2023-07-08T04:54:17;11.18;;;9.32;;
79074;SDS011;68476;42.710;23.388;2023-07-08T04:56:45;10.00;;;8.95;;
79074;SDS011;68476;42.710;23.388;2023-07-08T04:59:15;10.32;;;8.75;;
79074;SDS011;68476;42.710;23.388;2023-07-08T05:01:45;10.18;;;8.95;;
79074;SDS011;68476;42.710;23.388;2023-07-08T05:04:12;10.18;;;8.88;;
79074;SDS011;68476;42.710;23.388;2023-07-08T05:06:39;10.90;;;9.52;;
79074;SDS011;68476;42.710;23.388;2023-07-08T05:09:04;10.30;;;8.98;;
79074;SDS011;68476;42.710;23.388;2023-07-08T05:11:30;10.15;;;9.05;;
79074;SDS011;68476;42.710;23.388;2023-07-08T05:13:56;9.85;;;8.70;;
79074;SDS011;68476;42.710;23.388;2023-07-08T05:16:21;11.30;;;8.65;;
79074;SDS011;68476;42.710;23.388;2023-07-08T05:18:47;10.52;;;8.60;;
79074;SDS011;68476;42.710;23.388;2023-07-08T05:21:12;11.68;;;9.65;;
79074;SDS011;68476;42.710;23.388;2023-07-08T05:23:38;11.02;;;9.50;;
79074;SDS011;68476;42.710;23.388;2023-07-08T05:26:04;12.18;;;9.55;;
79074;SDS011;68476;42.710;23.388;2023-07-08T05:28:32;11.73;;;9.50;;
79074;SDS011;68476;42.710;23.388;2023-07-08T05:30:58;21.92;;;10.10;;
79074;SDS011;68476;42.710;23.388;2023-07-08T05:33:24;10.90;;;9.32;;
79074;SDS011;68476;42.710;23.388;2023-07-08T05:35:51;11.13;;;9.93;;
79074;SDS011;68476;42.710;23.388;2023-07-08T05:38:17;11.98;;;10.57;;
79074;SDS011;68476;42.710;23.388;2023-07-08T05:40:42;11.57;;;10.13;;
79074;SDS011;68476;42.710;23.388;2023-07-08T05:43:08;11.13;;;9.55;;
79074;SDS011;68476;42.710;23.388;2023-07-08T05:45:34;10.43;;;9.30;;
79074;SDS011;68476;42.710;23.388;2023-07-08T05:48:00;11.00;;;9.88;;
79074;SDS011;68476;42.710;23.388;2023-07-08T05:50:26;11.25;;;9.57;;
79074;SDS011;68476;42.710;23.388;2023-07-08T05:52:52;10.63;;;9.52;;
79074;SDS011;68476;42.710;23.388;2023-07-08T05:55:17;10.63;;;9.48;;
79074;SDS011;68476;42.710;23.388;2023-07-08T05:57:42;10.50;;;9.18;;
79074;SDS011;68476;42.710;23.388;2023-07-08T06:00:08;10.65;;;9.55;;
79074;SDS011;68476;42.710;23.388;2023-07-08T06:02:34;12.95;;;9.70;;
79074;SDS011;68476;42.710;23.388;2023-07-08T06:05:00;10.05;;;9.02;;
79074;SDS011;68476;42.710;23.388;2023-07-08T06:07:25;9.32;;;7.68;;
79074;SDS011;68476;42.710;23.388;2023-07-08T06:09:50;10.82;;;9.73;;
79074;SDS011;68476;42.710;23.388;2023-07-08T06:12:16;11.50;;;8.75;;
79074;SDS011;68476;42.710;23.388;2023-07-08T06:14:41;10.60;;;7.53;;
79074;SDS011;68476;42.710;23.388;2023-07-08T06:17:07;9.73;;;8.73;;
79074;SDS011;68476;42.710;23.388;2023-07-08T06:19:32;11.55;;;9.85;;
79074;SDS011;68476;42.710;23.388;2023-07-08T06:21:58;13.98;;;9.13;;
79074;SDS011;68476;42.710;23.388;2023-07-08T06:24:23;10.68;;;9.57;;
79074;SDS011;68476;42.710;23.388;2023-07-08T06:26:49;13.23;;;9.50;;
79074;SDS011;68476;42.710;23.388;2023-07-08T06:29:14;9.35;;;7.88;;
79074;SDS011;68476;42.710;23.388;2023-07-08T06:31:41;9.95;;;8.45;;
79074;SDS011;68476;42.710;23.388;2023-07-08T06:34:06;11.05;;;8.65;;
79074;SDS011;68476;42.710;23.388;2023-07-08T06:36:32;11.35;;;8.50;;
79074;SDS011;68476;42.710;23.388;2023-07-08T06:38:57;8.60;;;7.32;;
79074;SDS011;68476;42.710;23.388;2023-07-08T06:41:22;11.40;;;7.43;;
79074;SDS011;68476;42.710;23.388;2023-07-08T06:43:48;9.00;;;7.07;;
79074;SDS011;68476;42.710;23.388;2023-07-08T06:46:13;10.50;;;6.90;;
79074;SDS011;68476;42.710;23.388;2023-07-08T06:48:39;10.18;;;7.30;;
79074;SDS011;68476;42.710;23.388;2023-07-08T06:51:04;8.32;;;7.15;;
79074;SDS011;68476;42.710;23.388;2023-07-08T06:53:30;8.05;;;7.00;;
79074;SDS011;68476;42.710;23.388;2023-07-08T06:55:55;9.98;;;6.95;;
79074;SDS011;68476;42.710;23.388;2023-07-08T06:58:20;9.55;;;7.38;;
79074;SDS011;68476;42.710;23.388;2023-07-08T07:00:46;9.65;;;7.53;;
79074;SDS011;68476;42.710;23.388;2023-07-08T07:03:11;8.77;;;7.07;;
79074;SDS011;68476;42.710;23.388;2023-07-08T07:05:38;8.30;;;6.35;;
79074;SDS011;68476;42.710;23.388;2023-07-08T07:08:04;8.25;;;6.70;;
79074;SDS011;68476;42.710;23.388;2023-07-08T07:10:30;8.15;;;6.63;;
79074;SDS011;68476;42.710;23.388;2023-07-08T07:12:56;8.35;;;7.00;;
79074;SDS011;68476;42.710;23.388;2023-07-08T07:15:21;9.60;;;7.13;;
79074;SDS011;68476;42.710;23.388;2023-07-08T07:17:46;7.60;;;6.70;;
79074;SDS011;68476;42.710;23.388;2023-07-08T07:20:12;10.35;;;6.85;;
79074;SDS011;68476;42.710;23.388;2023-07-08T07:22:37;8.55;;;7.32;;
79074;SDS011;68476;42.710;23.388;2023-07-08T07:25:03;8.93;;;7.75;;
79074;SDS011;68476;42.710;23.388;2023-07-08T07:27:29;8.32;;;6.90;;
79074;SDS011;68476;42.710;23.388;2023-07-08T07:29:55;9.35;;;7.53;;
79074;SDS011;68476;42.710;23.388;2023-07-08T07:32:24;10.63;;;7.65;;
79074;SDS011;68476;42.710;23.388;2023-07-08T07:34:49;9.25;;;7.38;;
79074;SDS011;68476;42.710;23.388;2023-07-08T07:37:16;10.40;;;7.65;;
79074;SDS011;68476;42.710;23.388;2023-07-08T07:39:44;7.85;;;6.88;;
79074;SDS011;68476;42.710;23.388;2023-07-08T07:42:10;8.98;;;7.40;;
79074;SDS011;68476;42.710;23.388;2023-07-08T07:44:37;10.55;;;6.65;;
79074;SDS011;68476;42.710;23.388;2023-07-08T07:47:07;8.65;;;7.75;;
79074;SDS011;68476;42.710;23.388;2023-07-08T07:49:33;8.38;;;7.38;;
79074;SDS011;68476;42.710;23.388;2023-07-08T07:51:58;9.30;;;7.22;;
79074;SDS011;68476;42.710;23.388;2023-07-08T07:54:24;8.27;;;7.25;;
79074;SDS011;68476;42.710;23.388;2023-07-08T07:56:50;11.50;;;8.13;;
79074;SDS011;68476;42.710;23.388;2023-07-08T07:59:16;10.02;;;7.50;;
79074;SDS011;68476;42.710;23.388;2023-07-08T08:01:41;11.32;;;7.93;;
79074;SDS011;68476;42.710;23.388;2023-07-08T08:04:07;9.00;;;7.95;;
79074;SDS011;68476;42.710;23.388;2023-07-08T08:06:34;9.07;;;7.25;;
79074;SDS011;68476;42.710;23.388;2023-07-08T08:09:00;8.38;;;7.57;;
79074;SDS011;68476;42.710;23.388;2023-07-08T08:11:25;8.45;;;7.45;;
79074;SDS011;68476;42.710;23.388;2023-07-08T08:13:51;7.88;;;7.00;;
79074;SDS011;68476;42.710;23.388;2023-07-08T08:16:17;9.63;;;7.53;;
79074;SDS011;68476;42.710;23.388;2023-07-08T08:18:43;8.02;;;6.57;;
79074;SDS011;68476;42.710;23.388;2023-07-08T08:21:08;8.75;;;7.88;;
79074;SDS011;68476;42.710;23.388;2023-07-08T08:23:33;10.13;;;8.13;;
79074;SDS011;68476;42.710;23.388;2023-07-08T08:25:59;9.25;;;7.82;;
79074;SDS011;68476;42.710;23.388;2023-07-08T08:28:24;10.10;;;7.57;;
79074;SDS011;68476;42.710;23.388;2023-07-08T08:30:50;9.48;;;7.40;;
79074;SDS011;68476;42.710;23.388;2023-07-08T08:33:15;9.10;;;7.35;;
79074;SDS011;68476;42.710;23.388;2023-07-08T08:35:42;8.85;;;7.50;;
79074;SDS011;68476;42.710;23.388;2023-07-08T08:38:08;9.75;;;7.32;;
79074;SDS011;68476;42.710;23.388;2023-07-08T08:40:33;8.95;;;7.43;;
79074;SDS011;68476;42.710;23.388;2023-07-08T08:43:00;8.57;;;7.03;;
79074;SDS011;68476;42.710;23.388;2023-07-08T08:45:29;8.20;;;7.30;;
79074;SDS011;68476;42.710;23.388;2023-07-08T08:48:02;9.48;;;8.10;;
79074;SDS011;68476;42.710;23.388;2023-07-08T08:50:49;10.27;;;7.65;;
79074;SDS011;68476;42.710;23.388;2023-07-08T08:53:17;9.52;;;7.68;;
79074;SDS011;68476;42.710;23.388;2023-07-08T08:55:49;7.55;;;6.63;;
79074;SDS011;68476;42.710;23.388;2023-07-08T08:58:33;10.60;;;6.82;;
79074;SDS011;68476;42.710;23.388;2023-07-08T09:01:01;7.82;;;7.10;;
79074;SDS011;68476;42.710;23.388;2023-07-08T09:12:00;7.50;;;6.55;;
79074;SDS011;68476;42.710;23.388;2023-07-08T09:14:35;9.05;;;7.00;;
79074;SDS011;68476;42.710;23.388;2023-07-08T09:19:48;7.95;;;6.90;;
79074;SDS011;68476;42.710;23.388;2023-07-08T09:22:21;9.15;;;6.22;;
79074;SDS011;68476;42.710;23.388;2023-07-08T09:25:04;7.30;;;6.57;;
79074;SDS011;68476;42.710;23.388;2023-07-08T09:27:37;7.43;;;6.68;;
79074;SDS011;68476;42.710;23.388;2023-07-08T09:30:02;7.22;;;6.32;;
79074;SDS011;68476;42.710;23.388;2023-07-08T09:32:28;8.40;;;6.32;;
79074;SDS011;68476;42.710;23.388;2023-07-08T09:37:31;9.48;;;6.20;;
79074;SDS011;68476;42.710;23.388;2023-07-08T09:39:58;9.75;;;7.00;;
79074;SDS011;68476;42.710;23.388;2023-07-08T09:42:27;10.48;;;6.13;;
79074;SDS011;68476;42.710;23.388;2023-07-08T09:45:00;7.70;;;5.95;;
79074;SDS011;68476;42.710;23.388;2023-07-08T09:47:29;9.65;;;6.40;;
79074;SDS011;68476;42.710;23.388;2023-07-08T09:49:59;7.82;;;5.95;;
79074;SDS011;68476;42.710;23.388;2023-07-08T09:52:26;6.75;;;5.72;;
79074;SDS011;68476;42.710;23.388;2023-07-08T09:54:54;6.95;;;6.18;;
79074;SDS011;68476;42.710;23.388;2023-07-08T09:57:27;7.63;;;5.57;;
79074;SDS011;68476;42.710;23.388;2023-07-08T09:59:58;6.25;;;5.65;;
79074;SDS011;68476;42.710;23.388;2023-07-08T10:05:14;7.18;;;5.75;;
79074;SDS011;68476;42.710;23.388;2023-07-08T10:07:47;9.10;;;5.93;;
79074;SDS011;68476;42.710;23.388;2023-07-08T10:10:15;9.13;;;6.47;;
79074;SDS011;68476;42.710;23.388;2023-07-08T10:15:30;6.57;;;5.88;;
79074;SDS011;68476;42.710;23.388;2023-07-08T10:18:01;9.27;;;5.65;;
79074;SDS011;68476;42.710;23.388;2023-07-08T10:20:29;8.45;;;5.90;;
79074;SDS011;68476;42.710;23.388;2023-07-08T10:23:32;7.00;;;5.45;;
79074;SDS011;68476;42.710;23.388;2023-07-08T10:26:29;10.07;;;5.80;;
79074;SDS011;68476;42.710;23.388;2023-07-08T10:34:47;6.28;;;5.45;;
79074;SDS011;68476;42.710;23.388;2023-07-08T10:37:22;7.80;;;5.63;;
79074;SDS011;68476;42.710;23.388;2023-07-08T10:43:11;8.20;;;5.30;;
79074;SDS011;68476;42.710;23.388;2023-07-08T10:48:24;6.38;;;5.35;;
79074;SDS011;68476;42.710;23.388;2023-07-08T10:53:30;5.85;;;5.25;;
79074;SDS011;68476;42.710;23.388;2023-07-08T10:59:09;5.40;;;4.82;;
79074;SDS011;68476;42.710;23.388;2023-07-08T11:07:05;7.85;;;5.05;;
79074;SDS011;68476;42.710;23.388;2023-07-08T11:09:42;6.47;;;5.07;;
79074;SDS011;68476;42.710;23.388;2023-07-08T11:12:17;5.07;;;4.57;;
79074;SDS011;68476;42.710;23.388;2023-07-08T11:14:55;5.20;;;4.70;;
79074;SDS011;68476;42.710;23.388;2023-07-08T11:20:03;12.52;;;6.05;;
79074;SDS011;68476;42.710;23.388;2023-07-08T11:22:43;5.13;;;4.63;;
79074;SDS011;68476;42.710;23.388;2023-07-08T11:25:18;5.47;;;4.78;;
79074;SDS011;68476;42.710;23.388;2023-07-08T11:27:46;6.60;;;4.97;;
79074;SDS011;68476;42.710;23.388;2023-07-08T11:30:15;7.10;;;5.30;;
79074;SDS011;68476;42.710;23.388;2023-07-08T11:32:45;7.93;;;4.60;;
79074;SDS011;68476;42.710;23.388;2023-07-08T11:35:21;5.00;;;4.50;;
79074;SDS011;68476;42.710;23.388;2023-07-08T11:37:54;8.02;;;4.53;;
79074;SDS011;68476;42.710;23.388;2023-07-08T11:40:21;5.57;;;4.85;;
79074;SDS011;68476;42.710;23.388;2023-07-08T11:42:48;5.38;;;4.70;;
79074;SDS011;68476;42.710;23.388;2023-07-08T11:47:50;6.72;;;4.90;;
79074;SDS011;68476;42.710;23.388;2023-07-08T11:50:22;5.22;;;4.72;;
79074;SDS011;68476;42.710;23.388;2023-07-08T11:52:58;6.47;;;5.10;;
79074;SDS011;68476;42.710;23.388;2023-07-08T11:55:42;5.43;;;4.90;;
79074;SDS011;68476;42.710;23.388;2023-07-08T11:58:08;5.10;;;4.43;;
79074;SDS011;68476;42.710;23.388;2023-07-08T12:00:51;6.70;;;4.85;;
79074;SDS011;68476;42.710;23.388;2023-07-08T12:03:22;5.07;;;4.57;;
79074;SDS011;68476;42.710;23.388;2023-07-08T12:05:56;4.57;;;4.07;;
79074;SDS011;68476;42.710;23.388;2023-07-08T12:08:22;6.65;;;4.45;;
79074;SDS011;68476;42.710;23.388;2023-07-08T12:10:58;6.07;;;5.30;;
79074;SDS011;68476;42.710;23.388;2023-07-08T12:13:24;5.25;;;4.75;;
79074;SDS011;68476;42.710;23.388;2023-07-08T12:15:51;6.93;;;4.50;;
79074;SDS011;68476;42.710;23.388;2023-07-08T12:18:21;12.57;;;4.85;;
79074;SDS011;68476;42.710;23.388;2023-07-08T12:20:52;6.85;;;4.70;;
79074;SDS011;68476;42.710;23.388;2023-07-08T12:23:23;5.18;;;4.35;;
79074;SDS011;68476;42.710;23.388;2023-07-08T12:25:49;6.60;;;4.47;;
79074;SDS011;68476;42.710;23.388;2023-07-08T12:28:16;5.60;;;4.20;;
79074;SDS011;68476;42.710;23.388;2023-07-08T12:30:42;6.40;;;4.35;;
79074;SDS011;68476;42.710;23.388;2023-07-08T12:33:14;6.35;;;4.05;;
79074;SDS011;68476;42.710;23.388;2023-07-08T12:35:43;5.22;;;4.30;;
79074;SDS011;68476;42.710;23.388;2023-07-08T12:40:52;6.20;;;4.00;;
79074;SDS011;68476;42.710;23.388;2023-07-08T12:43:17;4.45;;;3.97;;
79074;SDS011;68476;42.710;23.388;2023-07-08T12:45:43;5.82;;;4.00;;
79074;SDS011;68476;42.710;23.388;2023-07-08T12:48:09;4.38;;;3.75;;
79074;SDS011;68476;42.710;23.388;2023-07-08T12:50:35;6.75;;;3.92;;
79074;SDS011;68476;42.710;23.388;2023-07-08T12:53:00;6.40;;;3.80;;
79074;SDS011;68476;42.710;23.388;2023-07-08T12:55:34;5.13;;;3.63;;
79074;SDS011;68476;42.710;23.388;2023-07-08T12:58:14;5.47;;;4.00;;
79074;SDS011;68476;42.710;23.388;2023-07-08T13:03:14;3.97;;;3.53;;
79074;SDS011;68476;42.710;23.388;2023-07-08T13:05:43;4.72;;;3.65;;
79074;SDS011;68476;42.710;23.388;2023-07-08T13:08:11;4.13;;;3.72;;
79074;SDS011;68476;42.710;23.388;2023-07-08T13:10:38;5.63;;;3.40;;
79074;SDS011;68476;42.710;23.388;2023-07-08T13:13:07;3.97;;;3.40;;
79074;SDS011;68476;42.710;23.388;2023-07-08T13:15:37;5.35;;;4.10;;
79074;SDS011;68476;42.710;23.388;2023-07-08T13:18:13;5.07;;;3.70;;
79074;SDS011;68476;42.710;23.388;2023-07-08T13:20:40;4.97;;;3.85;;
79074;SDS011;68476;42.710;23.388;2023-07-08T13:23:07;5.25;;;3.58;;
79074;SDS011;68476;42.710;23.388;2023-07-08T13:25:34;7.15;;;3.53;;
79074;SDS011;68476;42.710;23.388;2023-07-08T13:28:14;5.75;;;3.22;;
79074;SDS011;68476;42.710;23.388;2023-07-08T13:30:48;5.25;;;3.60;;
79074;SDS011;68476;42.710;23.388;2023-07-08T13:33:16;5.47;;;3.45;;
79074;SDS011;68476;42.710;23.388;2023-07-08T13:35:42;6.10;;;3.72;;
79074;SDS011;68476;42.710;23.388;2023-07-08T13:38:18;5.47;;;3.33;;
79074;SDS011;68476;42.710;23.388;2023-07-08T13:40:47;4.60;;;3.70;;
79074;SDS011;68476;42.710;23.388;2023-07-08T13:43:16;5.85;;;3.70;;
79074;SDS011;68476;42.710;23.388;2023-07-08T13:45:48;4.72;;;3.53;;
79074;SDS011;68476;42.710;23.388;2023-07-08T13:51:03;4.10;;;3.55;;
79074;SDS011;68476;42.710;23.388;2023-07-08T13:56:13;4.10;;;3.47;;
79074;SDS011;68476;42.710;23.388;2023-07-08T13:58:42;5.05;;;3.47;;
79074;SDS011;68476;42.710;23.388;2023-07-08T14:01:23;5.07;;;3.72;;
79074;SDS011;68476;42.710;23.388;2023-07-08T14:03:50;9.93;;;3.60;;
79074;SDS011;68476;42.710;23.388;2023-07-08T14:06:18;6.43;;;3.67;;
79074;SDS011;68476;42.710;23.388;2023-07-08T14:08:56;4.40;;;3.60;;
79074;SDS011;68476;42.710;23.388;2023-07-08T14:11:31;4.88;;;3.40;;
79074;SDS011;68476;42.710;23.388;2023-07-08T14:13:56;4.88;;;3.65;;
79074;SDS011;68476;42.710;23.388;2023-07-08T14:16:25;5.97;;;3.65;;
79074;SDS011;68476;42.710;23.388;2023-07-08T14:18:57;6.28;;;3.80;;
79074;SDS011;68476;42.710;23.388;2023-07-08T14:21:25;5.03;;;3.53;;
79074;SDS011;68476;42.710;23.388;2023-07-08T14:23:50;6.50;;;3.83;;
79074;SDS011;68476;42.710;23.388;2023-07-08T14:26:15;3.97;;;3.42;;
79074;SDS011;68476;42.710;23.388;2023-07-08T14:28:41;4.45;;;3.40;;
79074;SDS011;68476;42.710;23.388;2023-07-08T14:31:10;5.10;;;3.63;;
79074;SDS011;68476;42.710;23.388;2023-07-08T14:33:37;4.50;;;3.75;;
79074;SDS011;68476;42.710;23.388;2023-07-08T14:36:07;5.60;;;3.55;;
79074;SDS011;68476;42.710;23.388;2023-07-08T14:38:35;4.45;;;3.55;;
79074;SDS011;68476;42.710;23.388;2023-07-08T14:41:01;4.40;;;3.42;;
79074;SDS011;68476;42.710;23.388;2023-07-08T14:43:28;6.38;;;3.20;;
79074;SDS011;68476;42.710;23.388;2023-07-08T14:45:55;5.05;;;3.40;;
79074;SDS011;68476;42.710;23.388;2023-07-08T14:48:23;5.10;;;3.47;;
79074;SDS011;68476;42.710;23.388;2023-07-08T14:50:49;5.35;;;3.70;;
79074;SDS011;68476;42.710;23.388;2023-07-08T14:53:15;4.80;;;3.70;;
79074;SDS011;68476;42.710;23.388;2023-07-08T14:55:43;4.40;;;3.22;;
79074;SDS011;68476;42.710;23.388;2023-07-08T14:58:19;5.38;;;3.40;;
79074;SDS011;68476;42.710;23.388;2023-07-08T15:00:45;5.22;;;3.65;;
79074;SDS011;68476;42.710;23.388;2023-07-08T15:03:11;5.00;;;3.60;;
79074;SDS011;68476;42.710;23.388;2023-07-08T15:05:36;5.38;;;3.53;;
79074;SDS011;68476;42.710;23.388;2023-07-08T15:08:01;5.68;;;3.70;;
79074;SDS011;68476;42.710;23.388;2023-07-08T15:10:28;3.70;;;3.30;;
79074;SDS011;68476;42.710;23.388;2023-07-08T15:12:55;5.93;;;3.50;;
79074;SDS011;68476;42.710;23.388;2023-07-08T15:15:27;4.72;;;3.40;;
79074;SDS011;68476;42.710;23.388;2023-07-08T15:17:55;5.05;;;3.70;;
79074;SDS011;68476;42.710;23.388;2023-07-08T15:20:22;4.22;;;3.30;;
79074;SDS011;68476;42.710;23.388;2023-07-08T15:22:49;4.95;;;3.70;;
79074;SDS011;68476;42.710;23.388;2023-07-08T15:25:15;4.28;;;3.67;;
79074;SDS011;68476;42.710;23.388;2023-07-08T15:27:42;6.68;;;3.80;;
79074;SDS011;68476;42.710;23.388;2023-07-08T15:30:18;5.25;;;3.67;;
79074;SDS011;68476;42.710;23.388;2023-07-08T15:32:45;6.03;;;3.70;;
79074;SDS011;68476;42.710;23.388;2023-07-08T15:35:12;5.60;;;3.65;;
79074;SDS011;68476;42.710;23.388;2023-07-08T15:37:42;4.47;;;3.80;;
79074;SDS011;68476;42.710;23.388;2023-07-08T15:40:08;6.25;;;3.90;;